createdAt,value
2019-03-04T00:01:15.393Z,9.40
2019-03-04T00:03:45.235Z,9.40
2019-03-04T00:06:15.199Z,9.40
2019-03-04T00:08:44.998Z,9.40
2019-03-04T00:11:14.839Z,9.40
2019-03-04T00:13:44.625Z,9.30
2019-03-04T00:16:14.437Z,9.30
2019-03-04T00:18:44.343Z,9.30
2019-03-04T00:21:14.171Z,9.30
2019-03-04T00:23:43.982Z,9.40
2019-03-04T00:26:13.868Z,9.40
2019-03-04T00:28:43.726Z,9.40
2019-03-04T00:31:13.498Z,9.30
2019-03-04T00:33:43.387Z,9.30
2019-03-04T00:36:13.250Z,9.20
2019-03-04T00:38:43.322Z,9.20
2019-03-04T00:41:13.544Z,9.10
2019-03-04T00:43:43.405Z,9.00
2019-03-04T00:46:13.225Z,9.00
2019-03-04T00:48:43.035Z,9.00
2019-03-04T00:51:12.954Z,9.00
2019-03-04T00:53:42.780Z,8.90
2019-03-04T00:56:12.610Z,8.90
2019-03-04T00:58:42.480Z,8.90
2019-03-04T01:01:13.128Z,8.90
2019-03-04T01:03:42.914Z,8.80
2019-03-04T01:06:12.735Z,8.80
2019-03-04T01:08:42.492Z,8.80
2019-03-04T01:11:12.435Z,8.90
2019-03-04T01:13:42.336Z,8.90
2019-03-04T01:16:12.182Z,8.80
2019-03-04T01:18:42.197Z,8.70
2019-03-04T01:21:12.055Z,8.70
2019-03-04T01:23:41.857Z,8.70
2019-03-04T01:26:11.790Z,8.80
2019-03-04T01:28:41.646Z,8.90
2019-03-04T01:31:11.480Z,8.90
2019-03-04T01:33:41.260Z,8.90
2019-03-04T01:36:11.137Z,8.90
2019-03-04T01:38:41.087Z,8.90
2019-03-04T01:41:10.930Z,8.90
2019-03-04T01:43:40.715Z,8.90
2019-03-04T01:46:10.589Z,9.00
2019-03-04T01:48:40.485Z,8.90
2019-03-04T01:51:10.357Z,8.90
2019-03-04T01:53:40.230Z,8.90
2019-03-04T01:56:09.998Z,8.90
2019-03-04T01:58:39.878Z,8.90
2019-03-04T02:01:09.675Z,9.10
2019-03-04T02:03:39.571Z,9.10
2019-03-04T02:06:09.375Z,9.20
2019-03-04T02:08:39.176Z,9.30
2019-03-04T02:11:09.006Z,9.20
2019-03-04T02:13:38.948Z,9.20
2019-03-04T02:16:08.706Z,9.30
2019-03-04T02:18:38.579Z,9.20
2019-03-04T02:21:08.485Z,9.20
2019-03-04T02:23:39.323Z,9.10
2019-03-04T02:26:16.222Z,9.00
2019-03-04T02:28:46.251Z,9.00
2019-03-04T02:31:16.057Z,8.90
2019-03-04T02:33:45.902Z,8.90
2019-03-04T02:36:15.695Z,8.90
2019-03-04T02:38:48.128Z,8.90
2019-03-04T02:41:17.962Z,8.80
2019-03-04T02:43:47.872Z,8.70
2019-03-04T02:46:17.946Z,8.60
2019-03-04T02:48:47.701Z,8.50
2019-03-04T02:51:17.517Z,8.50
2019-03-04T02:53:47.284Z,8.40
2019-03-04T02:56:17.103Z,8.30
2019-03-04T02:58:46.994Z,8.30
2019-03-04T03:01:16.923Z,8.10
2019-03-04T03:03:46.779Z,8.00
2019-03-04T03:06:16.541Z,7.90
2019-03-04T03:08:46.414Z,7.80
2019-03-04T03:11:16.250Z,7.70
2019-03-04T03:13:46.014Z,7.60
2019-03-04T03:16:16.033Z,7.50
2019-03-04T03:18:45.944Z,7.40
2019-03-04T03:21:15.794Z,7.40
2019-03-04T03:23:45.624Z,7.40
2019-03-04T03:26:15.378Z,7.40
2019-03-04T03:28:45.227Z,7.30
2019-03-04T03:31:15.037Z,7.20
2019-03-04T03:33:44.822Z,7.20
2019-03-04T03:36:14.634Z,7.10
2019-03-04T03:38:47.460Z,7.10
2019-03-04T03:41:17.321Z,7.00
2019-03-04T03:43:47.106Z,6.90
2019-03-04T03:46:17.018Z,6.80
2019-03-04T03:48:46.883Z,6.80
2019-03-04T03:51:16.966Z,6.60
2019-03-04T03:53:46.811Z,6.60
2019-03-04T03:56:16.887Z,6.60
2019-03-04T03:58:46.771Z,6.60
2019-03-04T04:01:16.660Z,6.50
2019-03-04T04:03:46.593Z,6.50
2019-03-04T04:06:16.509Z,6.50
2019-03-04T04:08:46.324Z,6.50
2019-03-04T04:11:16.267Z,6.60
2019-03-04T04:13:46.041Z,6.50
2019-03-04T04:16:16.002Z,6.50
2019-03-04T04:18:45.903Z,6.50
2019-03-04T04:21:15.723Z,6.50
2019-03-04T04:23:45.721Z,6.50
2019-03-04T04:26:21.854Z,6.50
2019-03-04T04:28:59.968Z,6.50
2019-03-04T04:31:29.898Z,6.50
2019-03-04T04:33:59.783Z,6.50
2019-03-04T04:36:29.591Z,6.60
2019-03-04T04:39:01.440Z,6.50
2019-03-04T04:41:30.950Z,6.50
2019-03-04T04:44:00.777Z,6.40
2019-03-04T04:46:56.626Z,6.40
2019-03-04T04:49:28.312Z,6.40
2019-03-04T04:51:58.056Z,6.40
2019-03-04T04:54:27.843Z,6.50
2019-03-04T04:56:57.671Z,6.50
2019-03-04T04:59:27.474Z,6.50
2019-03-04T05:01:57.434Z,6.50
2019-03-04T05:04:27.454Z,6.60
2019-03-04T05:06:57.293Z,6.60
2019-03-04T05:09:27.216Z,6.60
2019-03-04T05:11:57.214Z,6.50
2019-03-04T05:14:27.059Z,6.60
2019-03-04T05:16:57.020Z,6.50
2019-03-04T05:19:26.803Z,6.60
2019-03-04T05:21:56.747Z,6.80
2019-03-04T05:24:26.543Z,6.90
2019-03-04T05:26:56.412Z,7.00
2019-03-04T05:29:26.152Z,7.00
2019-03-04T05:31:56.079Z,6.90
2019-03-04T05:34:25.834Z,7.00
2019-03-04T05:36:56.730Z,7.10
2019-03-04T05:39:26.712Z,7.20
2019-03-04T05:41:56.604Z,7.30
2019-03-04T05:44:26.515Z,7.40
2019-03-04T05:46:56.363Z,7.50
2019-03-04T05:49:29.079Z,7.40
2019-03-04T05:51:58.810Z,7.40
2019-03-04T05:54:28.666Z,7.30
2019-03-04T05:56:58.506Z,7.30
2019-03-04T05:59:28.331Z,7.30
2019-03-04T06:02:07.417Z,7.30
2019-03-04T06:04:37.593Z,7.20
2019-03-04T06:07:15.314Z,7.30
2019-03-04T06:09:45.188Z,7.30
2019-03-04T06:12:15.077Z,7.30
2019-03-04T06:14:44.950Z,7.30
2019-03-04T06:17:14.836Z,7.30
2019-03-04T06:19:44.585Z,7.30
2019-03-04T06:22:14.406Z,7.30
2019-03-04T06:24:44.303Z,7.30
2019-03-04T06:27:14.181Z,7.30
2019-03-04T06:29:44.038Z,7.20
2019-03-04T06:32:13.845Z,7.30
2019-03-04T06:34:43.767Z,7.30
2019-03-04T06:37:13.590Z,7.30
2019-03-04T06:39:43.394Z,7.20
2019-03-04T06:42:13.245Z,7.20
2019-03-04T06:44:43.131Z,7.20
2019-03-04T06:47:15.711Z,7.30
2019-03-04T06:49:45.574Z,7.20
2019-03-04T06:52:15.361Z,7.30
2019-03-04T06:55:37.854Z,7.40
2019-03-04T06:58:09.243Z,7.40
2019-03-04T07:00:55.636Z,7.40
2019-03-04T07:03:45.999Z,7.40
2019-03-04T07:06:15.816Z,7.50
2019-03-04T07:09:12.510Z,7.70
2019-03-04T07:11:46.294Z,7.90
2019-03-04T07:14:16.171Z,8.10
2019-03-04T07:16:46.877Z,8.30
2019-03-04T07:19:24.171Z,8.50
2019-03-04T07:21:54.108Z,8.60
2019-03-04T07:24:24.042Z,8.80
2019-03-04T07:26:54.135Z,9.00
2019-03-04T07:29:24.209Z,9.10
2019-03-04T07:31:54.020Z,9.40
2019-03-04T07:34:24.016Z,9.70
2019-03-04T07:36:54.157Z,10.10
2019-03-04T07:39:23.967Z,10.40
2019-03-04T07:42:00.792Z,10.70
2019-03-04T07:44:30.595Z,10.90
2019-03-04T07:47:00.574Z,11.00
2019-03-04T07:49:30.862Z,11.20
2019-03-04T07:52:00.749Z,11.40
2019-03-04T07:54:30.824Z,11.60
2019-03-04T07:57:00.753Z,11.60
2019-03-04T07:59:30.533Z,11.60
2019-03-04T08:02:00.412Z,11.90
2019-03-04T08:04:30.247Z,12.20
2019-03-04T08:07:45.665Z,12.30
2019-03-04T08:10:52.015Z,12.50
2019-03-04T08:13:42.723Z,12.50
2019-03-04T08:16:12.723Z,12.60
2019-03-04T08:18:42.672Z,12.60
2019-03-04T08:21:12.838Z,12.80
2019-03-04T08:23:42.702Z,13.30
2019-03-04T08:26:12.611Z,13.70
2019-03-04T08:28:42.735Z,14.20
2019-03-04T08:31:13.010Z,14.50
2019-03-04T09:15:37.312Z,16.40
2019-03-04T09:18:07.217Z,16.40
2019-03-04T09:20:37.009Z,16.60
2019-03-04T09:23:07.084Z,16.80
2019-03-04T09:25:59.843Z,16.90
2019-03-04T09:28:29.772Z,16.80
2019-03-04T09:30:59.650Z,16.60
2019-03-04T09:33:29.530Z,16.50
2019-03-04T09:35:59.443Z,16.50
2019-03-04T09:38:29.481Z,16.70
2019-03-04T09:40:59.275Z,16.90
2019-03-04T09:43:29.224Z,17.20
2019-03-04T09:45:59.218Z,17.40
2019-03-04T09:48:29.023Z,17.40
2019-03-04T09:50:58.949Z,17.30
2019-03-04T09:53:38.826Z,17.20
2019-03-04T09:56:00.527Z,17.10
2019-03-04T09:58:30.396Z,16.90
2019-03-04T10:01:49.694Z,16.80
2019-03-04T10:05:02.772Z,16.70
2019-03-04T10:08:07.056Z,16.70
2019-03-04T10:11:06.707Z,16.70
2019-03-04T10:13:44.987Z,16.70
2019-03-04T10:16:55.111Z,16.90
2019-03-04T10:20:14.754Z,16.90
2019-03-04T10:23:34.541Z,17.10
2019-03-04T10:26:45.887Z,17.20
2019-03-04T10:29:43.678Z,17.20
2019-03-04T10:32:53.480Z,16.70
2019-03-04T10:35:56.716Z,16.30
2019-03-04T10:38:42.910Z,15.90
2019-03-04T10:41:29.173Z,15.80
2019-03-04T10:44:33.260Z,15.60
2019-03-04T10:47:02.373Z,15.50
2019-03-04T10:49:33.550Z,15.60
2019-03-04T10:52:03.423Z,15.60
2019-03-04T10:54:33.356Z,15.60
2019-03-04T10:57:03.290Z,15.60
2019-03-04T10:59:33.179Z,15.60
2019-03-04T11:02:03.042Z,15.40
2019-03-04T11:04:32.923Z,15.30
2019-03-04T11:07:02.724Z,15.30
2019-03-04T11:09:32.579Z,15.40
2019-03-04T11:12:02.796Z,15.20
2019-03-04T11:14:33.584Z,15.10
2019-03-04T11:17:03.433Z,14.80
2019-03-04T11:19:33.425Z,14.60
2019-03-04T11:22:03.496Z,14.50
2019-03-04T11:24:33.328Z,14.30
2019-03-04T11:27:03.144Z,14.10
2019-03-04T11:29:32.987Z,13.90
2019-03-04T11:32:03.102Z,13.80
2019-03-04T11:34:32.885Z,13.80
2019-03-04T11:37:02.751Z,13.80
2019-03-04T11:40:03.771Z,13.80
2019-03-04T11:42:33.671Z,13.70
2019-03-04T11:45:03.456Z,13.70
2019-03-04T11:47:35.782Z,13.50
2019-03-04T11:50:08.685Z,13.10
2019-03-04T11:52:38.604Z,12.70
2019-03-04T11:55:09.597Z,12.50
2019-03-04T11:57:39.403Z,12.30
2019-03-04T12:00:20.138Z,12.10
2019-03-04T12:02:49.970Z,11.80
2019-03-04T12:05:19.954Z,11.60
2019-03-04T12:07:49.802Z,11.50
2019-03-04T12:10:19.631Z,11.30
2019-03-04T12:12:49.381Z,11.20
2019-03-04T12:15:19.388Z,11.10
2019-03-04T12:17:49.281Z,10.90
2019-03-04T12:20:19.298Z,10.70
2019-03-04T12:22:49.317Z,10.60
2019-03-04T12:25:19.224Z,10.50
2019-03-04T12:27:49.047Z,10.40
2019-03-04T12:30:19.449Z,10.20
2019-03-04T12:32:49.643Z,10.10
2019-03-04T12:35:19.645Z,10.00
2019-03-04T12:37:49.563Z,9.80
2019-03-04T12:40:19.476Z,9.70
2019-03-04T12:42:49.375Z,9.60
2019-03-04T12:45:19.273Z,9.50
2019-03-04T12:47:49.119Z,9.40
2019-03-04T12:50:21.494Z,9.40
2019-03-04T12:52:51.286Z,9.30
2019-03-04T12:55:21.230Z,9.20
2019-03-04T12:57:51.158Z,9.00
2019-03-04T13:00:22.206Z,8.90
2019-03-04T13:02:57.512Z,8.90
2019-03-04T13:05:25.348Z,8.80
2019-03-04T13:07:55.157Z,8.80
2019-03-04T13:10:25.092Z,8.70
2019-03-04T13:12:54.897Z,8.60
2019-03-04T13:15:25.237Z,8.50
2019-03-04T13:17:54.997Z,8.50
2019-03-04T13:20:24.866Z,8.30
2019-03-04T13:22:54.698Z,8.20
2019-03-04T13:25:24.546Z,8.10
2019-03-04T13:27:54.334Z,8.10
2019-03-04T13:30:24.185Z,8.00
2019-03-04T13:32:54.155Z,8.00
2019-03-04T13:35:25.029Z,7.90
2019-03-04T13:37:55.098Z,7.90
2019-03-04T13:40:24.936Z,7.90
2019-03-04T13:42:54.718Z,7.90
2019-03-04T13:45:24.875Z,7.90
2019-03-04T13:47:54.802Z,7.90
2019-03-04T13:50:26.442Z,7.80
2019-03-04T13:52:56.785Z,7.90
2019-03-04T13:55:26.952Z,7.80
2019-03-04T13:57:56.847Z,7.90
2019-03-04T14:00:26.958Z,7.90
2019-03-04T14:02:56.808Z,7.80
2019-03-04T14:05:26.707Z,7.70
2019-03-04T14:07:56.511Z,7.70
2019-03-04T14:10:27.940Z,7.70
2019-03-04T14:12:57.745Z,7.70
2019-03-04T14:15:30.646Z,7.70
2019-03-04T14:18:00.766Z,7.70
2019-03-04T14:20:30.893Z,7.80
2019-03-04T14:23:00.664Z,7.70
2019-03-04T14:25:30.502Z,7.70
2019-03-04T14:28:00.255Z,7.70
2019-03-04T14:30:30.089Z,7.70
2019-03-04T14:32:59.879Z,7.60
2019-03-04T14:35:29.698Z,7.70
2019-03-04T14:37:59.553Z,7.60
2019-03-04T14:40:29.271Z,7.50
2019-03-04T14:42:59.213Z,7.50
2019-03-04T14:45:29.377Z,7.50
2019-03-04T14:47:59.199Z,7.50
2019-03-04T14:50:29.150Z,7.50
2019-03-04T14:52:59.328Z,7.40
2019-03-04T14:55:29.144Z,7.40
2019-03-04T14:57:59.043Z,7.50
2019-03-04T15:00:33.158Z,7.40
2019-03-04T15:03:03.134Z,7.40
2019-03-04T15:05:32.939Z,7.50
2019-03-04T15:08:06.689Z,7.50
2019-03-04T15:10:36.679Z,7.50
2019-03-04T15:13:10.087Z,7.50
2019-03-04T15:15:40.137Z,7.50
2019-03-04T15:18:09.907Z,7.50
2019-03-04T15:20:40.022Z,7.50
2019-03-04T15:23:09.821Z,7.50
2019-03-04T15:25:39.767Z,7.50
2019-03-04T15:28:14.406Z,7.60
2019-03-04T15:30:44.862Z,7.60
2019-03-04T15:33:18.485Z,7.50
2019-03-04T15:35:47.637Z,7.60
2019-03-04T15:38:17.506Z,7.60
2019-03-04T15:40:48.094Z,7.70
2019-03-04T15:43:18.112Z,7.80
2019-03-04T15:45:50.536Z,7.80
2019-03-04T15:48:21.548Z,7.90
2019-03-04T15:50:51.275Z,7.80
2019-03-04T15:53:21.416Z,7.90
2019-03-04T15:55:51.265Z,7.90
2019-03-04T15:58:21.094Z,8.00
2019-03-04T16:00:51.298Z,8.10
2019-03-04T16:03:21.356Z,8.10
2019-03-04T16:05:51.425Z,8.20
2019-03-04T16:08:21.334Z,8.20
2019-03-04T16:10:51.837Z,8.30
2019-03-04T16:13:21.818Z,8.30
2019-03-04T16:15:51.829Z,8.40
2019-03-04T16:18:21.934Z,8.40
2019-03-04T16:20:51.975Z,8.50
2019-03-04T16:23:22.044Z,8.60
2019-03-04T16:25:52.011Z,8.70
2019-03-04T16:28:24.936Z,8.70
2019-03-04T16:30:54.742Z,8.70
2019-03-04T16:33:25.378Z,8.80
2019-03-04T16:35:55.227Z,8.90
2019-03-04T16:38:25.132Z,9.00
2019-03-04T16:40:55.025Z,9.10
2019-03-04T16:43:25.151Z,9.10
2019-03-04T16:45:54.950Z,9.20
2019-03-04T16:48:26.439Z,9.20
2019-03-04T16:50:56.413Z,9.20
2019-03-04T16:53:26.402Z,9.20
2019-03-04T16:55:56.673Z,9.20
2019-03-04T16:58:26.577Z,9.30
2019-03-04T17:00:56.616Z,9.40
2019-03-04T17:03:26.563Z,9.50
2019-03-04T17:05:56.934Z,9.40
2019-03-04T17:08:26.926Z,9.40
2019-03-04T17:10:56.858Z,9.40
2019-03-04T17:13:27.035Z,9.40
2019-03-04T17:15:57.009Z,9.40
2019-03-04T17:18:27.012Z,9.40
2019-03-04T17:20:56.830Z,9.30
2019-03-04T17:23:26.786Z,9.30
2019-03-04T17:25:56.745Z,9.20
2019-03-04T17:28:26.674Z,9.20
2019-03-04T17:30:59.694Z,9.10
2019-03-04T17:33:29.466Z,9.10
2019-03-04T17:35:59.388Z,9.00
2019-03-04T17:38:29.473Z,9.10
2019-03-04T17:40:59.620Z,9.10
2019-03-04T17:43:29.447Z,9.10
2019-03-04T17:45:59.327Z,9.10
2019-03-04T17:48:29.454Z,9.10
2019-03-04T17:50:59.488Z,9.10
2019-03-04T17:53:29.431Z,9.10
2019-03-04T17:55:59.326Z,9.10
2019-03-04T17:58:29.165Z,9.10
2019-03-04T18:00:59.195Z,9.10
2019-03-04T18:03:29.697Z,9.10
2019-03-04T18:05:59.987Z,9.10
2019-03-04T18:08:30.578Z,9.10
2019-03-04T18:11:00.819Z,9.00
2019-03-04T18:13:31.633Z,9.00
2019-03-04T18:16:02.945Z,9.00
2019-03-04T18:18:33.651Z,8.90
2019-03-04T18:21:04.368Z,8.90
2019-03-04T18:23:34.499Z,8.80
2019-03-04T18:26:17.944Z,8.80
2019-03-04T18:29:12.577Z,8.70
2019-03-04T18:32:05.276Z,8.80
2019-03-04T18:35:12.001Z,8.70
2019-03-04T18:38:07.100Z,8.60
2019-03-04T18:41:24.473Z,8.50
2019-03-04T18:44:19.433Z,8.40
2019-03-04T18:47:27.447Z,8.40
2019-03-04T18:49:57.644Z,8.30
2019-03-04T18:52:27.953Z,8.30
2019-03-04T18:54:58.660Z,8.30
2019-03-04T18:57:29.427Z,8.20
2019-03-04T19:00:02.024Z,8.20
2019-03-04T19:02:32.786Z,8.20
2019-03-04T19:05:03.545Z,8.10
2019-03-04T19:07:34.706Z,8.10
2019-03-04T19:10:05.682Z,8.10
2019-03-04T19:12:36.564Z,8.00
2019-03-04T19:15:11.626Z,7.90
2019-03-04T19:17:42.330Z,7.90
2019-03-04T19:20:15.527Z,7.70
2019-03-04T19:22:47.615Z,7.30
2019-03-04T19:25:18.322Z,6.80
2019-03-04T19:27:49.062Z,6.30
2019-03-04T19:30:22.624Z,5.90
2019-03-04T19:32:53.562Z,5.60
2019-03-04T19:35:26.567Z,5.50
2019-03-04T19:37:57.500Z,5.40
2019-03-04T19:40:28.074Z,5.40
2019-03-04T19:42:58.472Z,5.30
2019-03-04T19:45:29.562Z,5.20
2019-03-04T19:48:00.973Z,5.10
2019-03-04T19:50:32.018Z,5.00
2019-03-04T19:53:07.458Z,4.90
2019-03-04T19:55:39.218Z,4.80
2019-03-04T19:58:11.560Z,4.80
2019-03-04T20:00:43.536Z,4.90
2019-03-04T20:03:14.195Z,4.90
2019-03-04T20:05:44.874Z,5.00
2019-03-04T20:08:18.035Z,5.10
2019-03-04T20:10:49.734Z,5.10
2019-03-04T20:13:20.394Z,5.20
2019-03-04T20:15:52.092Z,5.30
2019-03-04T20:18:22.738Z,5.30
2019-03-04T20:20:53.224Z,5.40
2019-03-04T20:23:24.164Z,5.50
2019-03-04T20:25:55.886Z,5.50
2019-03-04T20:28:27.830Z,5.50
2019-03-04T20:30:58.235Z,5.60
2019-03-04T20:33:28.701Z,5.50
2019-03-04T20:35:59.039Z,5.50
2019-03-04T20:38:36.437Z,5.50
2019-03-04T20:41:06.678Z,5.40
2019-03-04T20:43:38.098Z,5.30
2019-03-04T20:46:09.888Z,5.30
2019-03-04T20:48:40.679Z,5.30
2019-03-04T20:51:11.834Z,5.20
2019-03-04T20:53:49.439Z,5.00
2019-03-04T20:56:19.825Z,4.80
2019-03-04T20:58:49.950Z,4.80
2019-03-04T21:01:20.226Z,4.70
2019-03-04T21:03:50.411Z,4.60
2019-03-04T21:06:20.606Z,4.50
2019-03-04T21:08:50.925Z,4.50
2019-03-04T21:11:21.054Z,4.50
2019-03-04T21:13:51.015Z,4.50
2019-03-04T21:16:20.838Z,4.50
2019-03-04T21:18:50.783Z,4.50
2019-03-04T21:21:20.702Z,4.40
2019-03-04T21:23:51.094Z,4.40
2019-03-04T21:26:26.511Z,4.30
2019-03-04T21:29:42.068Z,4.30
2019-03-04T21:32:24.527Z,4.30
2019-03-04T21:35:47.449Z,4.20
2019-03-04T21:38:18.312Z,4.20
2019-03-04T21:41:13.718Z,4.20
2019-03-04T21:43:50.626Z,4.30
2019-03-04T21:46:51.105Z,4.30
2019-03-04T21:49:21.656Z,4.40
2019-03-04T21:52:20.496Z,4.40
2019-03-04T21:54:51.863Z,4.50
2019-03-04T21:57:27.370Z,4.60
2019-03-04T22:00:00.563Z,4.60
2019-03-04T22:02:55.496Z,4.60
2019-03-04T22:05:26.606Z,4.50
2019-03-04T22:07:57.342Z,4.50
2019-03-04T22:10:28.169Z,4.40
2019-03-04T22:12:59.119Z,4.40
2019-03-04T22:15:30.303Z,4.40
2019-03-04T22:18:03.253Z,4.40
2019-03-04T22:20:33.353Z,4.40
2019-03-04T22:23:07.299Z,4.30
2019-03-04T22:25:39.123Z,4.40
2019-03-04T22:28:11.419Z,4.30
2019-03-04T22:30:42.191Z,4.30
2019-03-04T22:33:12.422Z,4.40
2019-03-04T22:35:42.366Z,4.40
2019-03-04T22:38:12.368Z,4.40
2019-03-04T22:40:42.509Z,4.50
2019-03-04T22:43:12.561Z,4.50
2019-03-04T22:45:42.423Z,4.50
2019-03-04T22:48:14.581Z,4.50
2019-03-04T22:50:44.394Z,4.40
2019-03-04T22:53:14.187Z,4.40
2019-03-04T22:55:44.232Z,4.40
2019-03-04T22:58:14.070Z,4.40
2019-03-04T23:01:18.103Z,4.40
2019-03-04T23:03:48.304Z,4.40
2019-03-04T23:06:24.082Z,4.40
2019-03-04T23:08:53.931Z,4.40
2019-03-04T23:11:26.694Z,4.40
2019-03-04T23:14:06.514Z,4.40
2019-03-04T23:16:36.537Z,4.40
2019-03-04T23:19:06.339Z,4.50
2019-03-04T23:21:36.354Z,4.50
2019-03-04T23:24:06.248Z,4.50
2019-03-04T23:26:36.472Z,4.60
2019-03-04T23:29:06.383Z,4.70
2019-03-04T23:31:36.242Z,4.60
2019-03-04T23:34:06.172Z,4.70
2019-03-04T23:36:36.006Z,4.60
2019-03-04T23:39:07.325Z,4.60
2019-03-04T23:41:37.265Z,4.60
2019-03-04T23:44:07.248Z,4.50
2019-03-04T23:46:37.252Z,4.50
2019-03-04T23:49:07.312Z,4.50
2019-03-04T23:51:37.271Z,4.50
2019-03-04T23:54:07.162Z,4.50
2019-03-04T23:56:37.241Z,4.60
2019-03-04T23:59:07.154Z,4.70
